createdAt,value
2019-01-23T00:00:10.534Z,37.23
2019-01-23T00:01:10.521Z,37.23
2019-01-23T00:02:10.545Z,37.13
2019-01-23T00:03:10.498Z,37.23
2019-01-23T00:04:10.496Z,37.13
2019-01-23T00:05:10.478Z,37.23
2019-01-23T00:06:10.487Z,37.33
2019-01-23T00:07:10.488Z,37.23
2019-01-23T00:08:10.445Z,37.13
2019-01-23T00:09:10.442Z,37.23
2019-01-23T00:10:10.470Z,37.43
2019-01-23T00:11:10.410Z,37.23
2019-01-23T00:12:10.407Z,37.23
2019-01-23T00:13:10.387Z,37.43
2019-01-23T00:14:10.395Z,37.43
2019-01-23T00:15:10.368Z,37.03
2019-01-23T00:16:10.355Z,37.43
2019-01-23T00:17:10.357Z,37.43
2019-01-23T00:18:10.328Z,37.13
2019-01-23T00:19:10.338Z,37.03
2019-01-23T00:20:10.325Z,37.03
2019-01-23T00:21:10.296Z,37.23
2019-01-23T00:22:10.289Z,37.33
2019-01-23T00:23:10.288Z,37.23
2019-01-23T00:24:10.274Z,37.23
2019-01-23T00:25:10.249Z,37.43
2019-01-23T00:26:10.238Z,37.23
2019-01-23T00:27:10.228Z,37.43
2019-01-23T00:28:10.223Z,37.03
2019-01-23T00:29:10.221Z,37.43
2019-01-23T00:30:10.198Z,37.33
2019-01-23T00:31:10.181Z,37.43
2019-01-23T00:32:10.170Z,37.03
2019-01-23T00:33:10.207Z,37.33
2019-01-23T00:34:10.166Z,37.23
2019-01-23T00:35:10.175Z,37.33
2019-01-23T00:36:10.130Z,37.33
2019-01-23T00:37:10.115Z,37.23
2019-01-23T00:38:10.105Z,37.13
2019-01-23T00:39:10.150Z,37.43
2019-01-23T00:40:10.090Z,37.33
2019-01-23T00:41:10.071Z,37.33
2019-01-23T00:42:10.071Z,37.23
2019-01-23T00:43:10.073Z,37.33
2019-01-23T00:44:10.060Z,37.43
2019-01-23T00:45:10.034Z,37.43
2019-01-23T00:46:10.018Z,37.43
2019-01-23T00:47:10.038Z,37.03
2019-01-23T00:48:09.996Z,37.43
2019-01-23T00:49:09.985Z,37.43
2019-01-23T00:50:09.989Z,37.23
2019-01-23T00:51:09.964Z,37.23
2019-01-23T00:52:09.957Z,37.33
2019-01-23T00:53:09.936Z,37.23
2019-01-23T00:54:09.924Z,37.33
2019-01-23T00:55:09.945Z,37.23
2019-01-23T00:56:09.910Z,37.33
2019-01-23T00:57:09.891Z,37.43
2019-01-23T00:58:09.880Z,37.23
2019-01-23T00:59:09.877Z,37.63
2019-01-23T01:00:09.873Z,37.33
2019-01-23T01:01:09.844Z,37.33
2019-01-23T01:02:09.837Z,37.23
2019-01-23T01:03:09.823Z,37.33
2019-01-23T01:04:09.812Z,37.33
2019-01-23T01:05:09.815Z,37.23
2019-01-23T01:06:09.813Z,37.63
2019-01-23T01:07:09.777Z,37.33
2019-01-23T01:08:09.766Z,37.33
2019-01-23T01:09:09.756Z,37.33
2019-01-23T01:10:09.757Z,37.33
2019-01-23T01:11:09.741Z,37.23
2019-01-23T01:12:09.876Z,37.43
2019-01-23T01:13:09.715Z,37.23
2019-01-23T01:14:09.756Z,37.23
2019-01-23T01:15:13.393Z,37.33
2019-01-23T01:16:09.675Z,37.23
2019-01-23T01:17:09.665Z,37.83
2019-01-23T01:18:09.662Z,37.23
2019-01-23T01:19:09.646Z,37.33
2019-01-23T01:20:09.641Z,37.43
2019-01-23T01:21:09.618Z,37.53
2019-01-23T01:22:09.609Z,37.43
2019-01-23T01:23:09.606Z,37.83
2019-01-23T01:24:09.588Z,37.83
2019-01-23T01:25:09.621Z,37.53
2019-01-23T01:26:09.569Z,37.33
2019-01-23T01:27:09.552Z,37.43
2019-01-23T01:28:09.544Z,37.53
2019-01-23T01:29:09.545Z,37.83
2019-01-23T01:30:09.539Z,37.73
2019-01-23T01:31:09.506Z,37.73
2019-01-23T01:32:09.513Z,37.23
2019-01-23T01:33:09.485Z,37.33
2019-01-23T01:34:09.478Z,37.83
2019-01-23T01:35:09.473Z,37.73
2019-01-23T01:36:09.455Z,37.53
2019-01-23T01:37:09.441Z,37.33
2019-01-23T01:38:09.431Z,37.83
2019-01-23T01:39:09.460Z,37.83
2019-01-23T01:40:12.473Z,37.83
2019-01-23T01:41:09.398Z,37.83
2019-01-23T01:42:09.386Z,37.83
2019-01-23T01:43:09.374Z,37.43
2019-01-23T01:44:09.368Z,37.53
2019-01-23T01:45:09.384Z,37.53
2019-01-23T01:46:09.340Z,37.83
2019-01-23T01:47:09.335Z,37.43
2019-01-23T01:48:09.317Z,37.73
2019-01-23T01:49:09.311Z,37.73
2019-01-23T01:50:09.306Z,37.83
2019-01-23T01:51:09.292Z,37.83
2019-01-23T01:52:09.297Z,37.43
2019-01-23T01:53:09.261Z,37.43
2019-01-23T01:54:09.253Z,37.23
2019-01-23T01:55:09.268Z,37.83
2019-01-23T01:56:09.239Z,37.43
2019-01-23T01:57:09.222Z,37.53
2019-01-23T01:58:10.313Z,37.83
2019-01-23T01:59:09.193Z,37.83
2019-01-23T02:00:09.200Z,37.73
2019-01-23T02:01:09.175Z,37.83
2019-01-23T02:02:09.190Z,37.83
2019-01-23T02:03:09.156Z,37.83
2019-01-23T02:04:09.149Z,37.43
2019-01-23T02:05:09.139Z,37.43
2019-01-23T02:06:09.112Z,37.73
2019-01-23T02:07:09.107Z,37.83
2019-01-23T02:08:09.105Z,37.83
2019-01-23T02:09:09.084Z,37.73
2019-01-23T02:10:09.096Z,37.53
2019-01-23T02:11:09.062Z,37.73
2019-01-23T02:12:09.082Z,37.43
2019-01-23T02:13:09.049Z,37.73
2019-01-23T02:14:09.026Z,37.63
2019-01-23T02:15:09.025Z,37.73
2019-01-23T02:16:09.001Z,37.83
2019-01-23T02:17:09.004Z,37.73
2019-01-23T02:18:08.984Z,37.73
2019-01-23T02:19:08.970Z,37.83
2019-01-23T02:20:08.969Z,37.73
2019-01-23T02:21:08.947Z,37.43
2019-01-23T02:22:08.934Z,37.63
2019-01-23T02:23:08.931Z,37.73
2019-01-23T02:24:08.919Z,37.33
2019-01-23T02:25:08.943Z,37.63
2019-01-23T02:26:08.904Z,37.73
2019-01-23T02:27:09.006Z,37.63
2019-01-23T02:28:09.029Z,37.33
2019-01-23T02:29:09.609Z,37.43
2019-01-23T02:30:09.966Z,37.73
2019-01-23T02:31:08.967Z,37.43
2019-01-23T02:32:08.902Z,37.33
2019-01-23T02:33:08.877Z,37.73
2019-01-23T02:34:08.803Z,37.63
2019-01-23T02:35:15.868Z,37.93
2019-01-23T02:36:15.931Z,37.85
2019-01-23T02:37:15.862Z,37.23
2019-01-23T02:38:15.852Z,37.65
2019-01-23T02:39:15.788Z,37.75
2019-01-23T02:40:17.551Z,37.75
2019-01-23T02:41:08.718Z,37.95
2019-01-23T02:42:08.716Z,37.35
2019-01-23T02:43:08.699Z,37.85
2019-01-23T02:44:08.694Z,37.65
2019-01-23T02:45:08.699Z,37.65
2019-01-23T02:46:08.667Z,37.85
2019-01-23T02:47:08.654Z,37.35
2019-01-23T02:48:08.641Z,37.35
2019-01-23T02:49:08.643Z,37.25
2019-01-23T02:50:08.619Z,37.25
2019-01-23T02:51:08.626Z,37.25
2019-01-23T02:52:08.616Z,37.25
2019-01-23T02:53:08.585Z,37.25
2019-01-23T02:54:08.594Z,37.25
2019-01-23T02:55:08.588Z,37.25
2019-01-23T02:56:08.565Z,37.85
2019-01-23T02:57:08.541Z,37.35
2019-01-23T02:58:08.539Z,37.25
2019-01-23T02:59:08.563Z,37.45
2019-01-23T03:00:08.523Z,37.85
2019-01-23T03:01:08.512Z,37.85
2019-01-23T03:02:08.495Z,37.25
2019-01-23T03:03:08.482Z,37.75
2019-01-23T03:04:08.462Z,37.85
2019-01-23T03:05:08.456Z,37.35
2019-01-23T03:06:08.471Z,37.45
2019-01-23T03:07:08.430Z,37.43
2019-01-23T03:08:08.435Z,37.45
2019-01-23T03:09:08.451Z,37.63
2019-01-23T03:10:08.429Z,37.75
2019-01-23T03:11:08.415Z,37.65
2019-01-23T03:12:08.384Z,37.65
2019-01-23T03:13:08.361Z,37.65
2019-01-23T03:14:08.361Z,37.75
2019-01-23T03:15:08.339Z,37.45
2019-01-23T03:16:08.342Z,37.75
2019-01-23T03:17:08.319Z,37.65
2019-01-23T03:18:08.327Z,37.63
2019-01-23T03:19:08.294Z,37.55
2019-01-23T03:20:08.281Z,37.55
2019-01-23T03:21:08.306Z,38.05
2019-01-23T03:22:08.281Z,37.03
2019-01-23T03:23:08.248Z,37.93
2019-01-23T03:24:08.243Z,37.55
2019-01-23T03:25:08.234Z,38.05
2019-01-23T03:26:08.234Z,37.85
2019-01-23T03:27:08.202Z,37.65
2019-01-23T03:28:08.193Z,37.53
2019-01-23T03:29:08.248Z,37.93
2019-01-23T03:30:08.172Z,37.63
2019-01-23T03:31:08.170Z,37.75
2019-01-23T03:32:08.158Z,37.75
2019-01-23T03:33:08.148Z,37.55
2019-01-23T03:34:08.160Z,37.45
2019-01-23T03:35:08.128Z,37.83
2019-01-23T03:36:08.114Z,37.93
2019-01-23T03:37:08.119Z,37.55
2019-01-23T03:38:08.082Z,37.65
2019-01-23T03:39:08.089Z,37.45
2019-01-23T03:40:08.060Z,37.95
2019-01-23T03:41:08.060Z,37.95
2019-01-23T03:42:08.036Z,37.75
2019-01-23T03:43:08.022Z,37.53
2019-01-23T03:44:08.040Z,37.73
2019-01-23T03:45:08.021Z,37.45
2019-01-23T03:46:08.017Z,37.55
2019-01-23T03:47:07.978Z,37.53
2019-01-23T03:48:07.965Z,37.75
2019-01-23T03:49:07.954Z,37.75
2019-01-23T03:50:07.959Z,37.85
2019-01-23T03:51:07.939Z,37.55
2019-01-23T03:52:07.936Z,38.05
2019-01-23T03:53:07.918Z,37.73
2019-01-23T03:54:07.898Z,37.85
2019-01-23T03:55:07.904Z,37.75
2019-01-23T03:56:07.878Z,37.75
2019-01-23T03:57:07.888Z,37.85
2019-01-23T03:58:07.866Z,37.73
2019-01-23T03:59:07.846Z,37.75
2019-01-23T04:00:07.834Z,37.75
2019-01-23T04:01:07.828Z,37.55
2019-01-23T04:02:07.826Z,37.85
2019-01-23T04:03:07.808Z,37.63
2019-01-23T04:04:07.787Z,37.75
2019-01-23T04:05:07.775Z,37.63
2019-01-23T04:06:07.776Z,37.65
2019-01-23T04:07:07.791Z,38.05
2019-01-23T04:08:07.766Z,37.55
2019-01-23T04:09:07.730Z,37.83
2019-01-23T04:10:07.721Z,37.75
2019-01-23T04:11:07.710Z,37.75
2019-01-23T04:12:07.710Z,37.63
2019-01-23T04:13:07.743Z,37.85
2019-01-23T04:14:07.674Z,37.55
2019-01-23T04:15:07.675Z,37.75
2019-01-23T04:16:07.662Z,37.73
2019-01-23T04:17:07.658Z,37.55
2019-01-23T04:18:07.645Z,37.75
2019-01-23T04:19:07.624Z,37.75
2019-01-23T04:20:07.613Z,37.65
2019-01-23T04:21:07.618Z,37.93
2019-01-23T04:22:07.603Z,37.45
2019-01-23T04:23:07.584Z,37.75
2019-01-23T04:24:07.562Z,37.75
2019-01-23T04:25:07.557Z,37.93
2019-01-23T04:26:07.559Z,37.75
2019-01-23T04:27:07.558Z,37.75
2019-01-23T04:28:07.522Z,37.65
2019-01-23T04:29:07.514Z,37.55
2019-01-23T04:30:07.495Z,37.75
2019-01-23T04:31:09.004Z,37.85
2019-01-23T04:32:07.509Z,37.75
2019-01-23T04:33:07.484Z,37.85
2019-01-23T04:34:07.461Z,37.95
2019-01-23T04:35:07.444Z,37.75
2019-01-23T04:36:07.434Z,37.75
2019-01-23T04:37:07.443Z,37.75
2019-01-23T04:38:07.423Z,37.85
2019-01-23T04:39:07.574Z,37.75
2019-01-23T04:40:07.394Z,37.55
2019-01-23T04:41:07.374Z,37.53
2019-01-23T04:42:07.366Z,37.73
2019-01-23T04:43:07.378Z,37.75
2019-01-23T04:44:07.778Z,37.45
2019-01-23T04:45:07.328Z,37.55
2019-01-23T04:46:07.345Z,37.75
2019-01-23T04:47:07.312Z,37.65
2019-01-23T04:48:07.307Z,37.85
2019-01-23T04:49:07.283Z,37.75
2019-01-23T04:50:07.280Z,37.63
2019-01-23T04:51:07.265Z,37.65
2019-01-23T04:52:07.277Z,37.65
2019-01-23T04:53:07.253Z,37.95
2019-01-23T04:54:07.257Z,37.65
2019-01-23T04:55:07.216Z,37.75
2019-01-23T04:56:07.220Z,37.85
2019-01-23T04:57:07.214Z,37.75
2019-01-23T04:58:07.195Z,37.75
2019-01-23T04:59:07.183Z,37.95
2019-01-23T05:00:07.160Z,37.75
2019-01-23T05:01:07.153Z,37.95
2019-01-23T05:02:07.143Z,37.55
2019-01-23T05:03:07.151Z,37.75
2019-01-23T05:04:07.119Z,37.45
2019-01-23T05:05:07.110Z,37.55
2019-01-23T05:06:07.092Z,37.75
2019-01-23T05:07:07.107Z,37.75
2019-01-23T05:08:07.099Z,37.75
2019-01-23T05:09:07.059Z,37.55
2019-01-23T05:10:07.050Z,37.55
2019-01-23T05:11:07.044Z,37.65
2019-01-23T05:12:07.029Z,37.75
2019-01-23T05:13:07.146Z,37.85
2019-01-23T05:14:07.012Z,37.75
2019-01-23T05:15:06.994Z,37.85
2019-01-23T05:16:07.107Z,37.65
2019-01-23T05:17:06.992Z,37.75
2019-01-23T05:18:06.977Z,37.75
2019-01-23T05:19:06.959Z,37.75
2019-01-23T05:20:06.936Z,37.65
2019-01-23T05:21:06.931Z,37.75
2019-01-23T05:22:06.917Z,37.75
2019-01-23T05:23:06.938Z,37.75
2019-01-23T05:24:06.912Z,37.75
2019-01-23T05:25:06.901Z,37.75
2019-01-23T05:26:06.873Z,37.65
2019-01-23T05:27:06.871Z,37.65
2019-01-23T05:28:06.853Z,37.55
2019-01-23T05:29:07.089Z,37.75
2019-01-23T05:30:06.837Z,37.55
2019-01-23T05:31:06.873Z,37.85
2019-01-23T05:32:06.806Z,37.55
2019-01-23T05:33:06.792Z,37.75
2019-01-23T05:34:06.796Z,37.75
2019-01-23T05:35:06.773Z,37.55
2019-01-23T05:36:06.763Z,37.75
2019-01-23T05:37:06.746Z,37.85
2019-01-23T05:38:06.751Z,37.75
2019-01-23T05:39:06.756Z,37.65
2019-01-23T05:40:06.726Z,37.35
2019-01-23T05:41:06.698Z,37.55
2019-01-23T05:42:06.697Z,37.55
2019-01-23T05:43:06.681Z,37.75
2019-01-23T05:44:06.722Z,37.55
2019-01-23T05:45:06.659Z,37.35
2019-01-23T05:46:06.650Z,37.35
2019-01-23T05:47:06.634Z,37.35
2019-01-23T05:48:06.674Z,37.55
2019-01-23T05:49:06.625Z,37.55
2019-01-23T05:50:06.599Z,37.55
2019-01-23T05:51:06.595Z,37.55
2019-01-23T05:52:06.597Z,37.65
2019-01-23T05:53:06.574Z,37.65
2019-01-23T05:54:06.571Z,37.55
2019-01-23T05:55:06.551Z,37.55
2019-01-23T05:56:06.537Z,37.65
2019-01-23T05:57:06.577Z,37.55
2019-01-23T05:58:06.529Z,37.55
2019-01-23T05:59:06.527Z,37.55
2019-01-23T06:00:06.499Z,37.35
2019-01-23T06:01:06.494Z,37.95
2019-01-23T06:02:06.516Z,37.65
2019-01-23T06:03:06.477Z,37.65
2019-01-23T06:04:06.470Z,37.95
2019-01-23T06:05:06.457Z,37.55
2019-01-23T06:06:06.422Z,37.95
2019-01-23T06:07:06.410Z,37.65
2019-01-23T06:08:06.400Z,37.65
2019-01-23T06:09:06.416Z,37.55
2019-01-23T06:10:06.383Z,37.85
2019-01-23T06:11:06.363Z,37.35
2019-01-23T06:12:06.352Z,37.25
2019-01-23T06:13:06.376Z,37.55
2019-01-23T06:14:06.358Z,37.65
2019-01-23T06:15:06.500Z,37.25
2019-01-23T06:16:06.307Z,37.65
2019-01-23T06:17:06.302Z,37.25
2019-01-23T06:18:06.288Z,37.95
2019-01-23T06:19:06.286Z,37.65
2019-01-23T06:20:06.288Z,37.65
2019-01-23T06:21:07.092Z,37.65
2019-01-23T06:22:06.338Z,37.45
2019-01-23T06:23:06.710Z,37.75
2019-01-23T06:24:07.057Z,37.65
2019-01-23T06:25:06.245Z,37.75
2019-01-23T06:26:06.219Z,37.95
2019-01-23T06:27:06.464Z,37.75
2019-01-23T06:28:06.187Z,37.65
2019-01-23T06:29:06.225Z,37.95
2019-01-23T06:30:10.276Z,37.95
2019-01-23T06:31:06.166Z,37.65
2019-01-23T06:32:06.143Z,37.95
2019-01-23T06:33:06.167Z,37.65
2019-01-23T06:34:06.161Z,37.95
2019-01-23T06:35:06.134Z,37.75
2019-01-23T06:36:06.091Z,37.75
2019-01-23T06:37:06.080Z,37.75
2019-01-23T06:38:06.151Z,37.75
2019-01-23T06:39:06.073Z,37.65
2019-01-23T06:40:06.074Z,37.65
2019-01-23T06:41:06.036Z,37.65
2019-01-23T06:42:06.039Z,37.75
2019-01-23T06:43:06.021Z,37.85
2019-01-23T06:44:06.004Z,37.75
2019-01-23T06:45:06.007Z,37.85
2019-01-23T06:46:05.986Z,37.75
2019-01-23T06:47:05.963Z,37.65
2019-01-23T06:48:05.995Z,37.75
2019-01-23T06:49:05.999Z,37.75
2019-01-23T06:50:06.080Z,37.65
2019-01-23T06:51:05.999Z,37.85
2019-01-23T06:52:05.965Z,37.75
2019-01-23T06:53:05.958Z,37.75
2019-01-23T06:54:05.921Z,37.75
2019-01-23T06:55:05.917Z,37.65
2019-01-23T06:56:05.894Z,37.65
2019-01-23T06:57:05.891Z,37.65
2019-01-23T06:58:05.910Z,37.37
2019-01-23T06:59:05.912Z,37.66
2019-01-23T07:00:05.935Z,37.65
2019-01-23T07:01:05.838Z,37.65
2019-01-23T07:02:05.853Z,37.85
2019-01-23T07:03:05.835Z,36.94
2019-01-23T07:04:05.815Z,37.66
2019-01-23T07:05:05.836Z,37.65
2019-01-23T07:06:13.277Z,37.65
2019-01-23T07:07:12.945Z,37.45
2019-01-23T07:08:13.704Z,37.25
2019-01-23T07:09:14.313Z,37.16
2019-01-23T07:10:15.864Z,37.05
2019-01-23T07:11:13.122Z,36.96
2019-01-23T07:12:05.731Z,36.87
2019-01-23T07:13:05.685Z,36.76
2019-01-23T07:14:05.696Z,37.46
2019-01-23T07:15:05.662Z,37.46
2019-01-23T07:16:05.656Z,37.77
2019-01-23T07:17:05.662Z,37.87
2019-01-23T07:18:05.616Z,37.66
2019-01-23T07:19:05.637Z,37.66
2019-01-23T07:20:05.598Z,37.96
2019-01-23T07:21:05.632Z,37.96
2019-01-23T07:22:05.577Z,37.27
2019-01-23T07:23:05.597Z,37.57
2019-01-23T07:24:05.558Z,37.66
2019-01-23T07:25:05.589Z,37.57
2019-01-23T07:26:05.587Z,37.66
2019-01-23T07:27:05.578Z,37.96
2019-01-23T07:28:05.577Z,37.66
2019-01-23T07:29:05.573Z,37.77
2019-01-23T07:30:05.569Z,37.27
2019-01-23T07:31:05.560Z,37.77
2019-01-23T07:32:05.595Z,37.77
2019-01-23T07:33:05.585Z,37.87
2019-01-23T07:34:05.519Z,37.77
2019-01-23T07:35:05.482Z,37.66
2019-01-23T07:36:05.491Z,37.77
2019-01-23T07:37:05.452Z,37.66
2019-01-23T07:38:05.455Z,37.65
2019-01-23T07:39:05.450Z,37.65
2019-01-23T07:40:05.376Z,37.77
2019-01-23T07:41:05.370Z,37.65
2019-01-23T07:42:05.348Z,37.75
2019-01-23T07:43:05.338Z,37.65
2019-01-23T07:44:05.322Z,37.66
2019-01-23T07:45:05.313Z,37.37
2019-01-23T07:46:05.313Z,37.25
2019-01-23T07:47:05.291Z,37.66
2019-01-23T07:48:05.285Z,37.65
2019-01-23T07:49:05.267Z,37.35
2019-01-23T07:50:05.257Z,38.15
2019-01-23T07:51:05.259Z,37.65
2019-01-23T07:52:05.236Z,37.75
2019-01-23T07:53:05.225Z,37.65
2019-01-23T07:54:05.217Z,37.65
2019-01-23T07:55:05.199Z,37.85
2019-01-23T07:56:05.220Z,37.35
2019-01-23T07:57:05.183Z,37.75
2019-01-23T07:58:05.181Z,37.75
2019-01-23T07:59:05.170Z,37.65
2019-01-23T08:00:05.147Z,37.75
2019-01-23T08:01:05.187Z,38.05
2019-01-23T08:02:05.145Z,37.25
2019-01-23T08:03:05.120Z,37.35
2019-01-23T08:04:05.109Z,37.45
2019-01-23T08:05:05.215Z,37.15
2019-01-23T08:06:05.175Z,37.45
2019-01-23T08:07:05.094Z,37.15
2019-01-23T08:08:05.055Z,37.85
2019-01-23T08:09:05.309Z,36.94
2019-01-23T08:10:05.057Z,37.75
2019-01-23T08:11:05.033Z,37.45
2019-01-23T08:12:10.666Z,38.05
2019-01-23T08:13:06.058Z,38.05
2019-01-23T08:14:04.993Z,37.55
2019-01-23T08:15:04.977Z,36.94
2019-01-23T08:16:04.980Z,37.95
2019-01-23T08:17:04.966Z,37.35
2019-01-23T08:18:04.953Z,37.15
2019-01-23T08:19:04.976Z,37.45
2019-01-23T08:20:04.940Z,37.15
2019-01-23T08:21:04.935Z,37.15
2019-01-23T08:22:04.926Z,37.15
2019-01-23T08:23:04.925Z,37.55
2019-01-23T08:24:04.906Z,38.05
2019-01-23T08:25:04.882Z,37.45
2019-01-23T08:26:04.869Z,37.55
2019-01-23T08:27:07.116Z,37.45
2019-01-23T08:28:04.846Z,37.35
2019-01-23T08:29:04.826Z,37.35
2019-01-23T08:30:04.822Z,37.35
2019-01-23T08:31:04.799Z,37.35
2019-01-23T08:32:04.808Z,38.05
2019-01-23T08:33:04.791Z,37.05
2019-01-23T08:34:04.771Z,37.35
2019-01-23T08:35:04.775Z,37.25
2019-01-23T08:36:04.743Z,37.25
2019-01-23T08:37:04.744Z,37.95
2019-01-23T08:38:04.744Z,37.35
2019-01-23T08:39:04.726Z,37.35
2019-01-23T08:40:04.702Z,37.35
2019-01-23T08:41:04.702Z,37.35
2019-01-23T08:42:04.694Z,37.35
2019-01-23T08:43:05.837Z,37.35
2019-01-23T08:44:04.683Z,36.75
2019-01-23T08:45:04.685Z,37.05
2019-01-23T08:46:04.635Z,37.25
2019-01-23T08:47:04.648Z,37.35
2019-01-23T08:48:04.612Z,37.45
2019-01-23T08:49:04.599Z,37.15
2019-01-23T08:50:04.594Z,37.25
2019-01-23T08:51:04.578Z,36.75
2019-01-23T08:52:04.588Z,37.25
2019-01-23T08:53:04.554Z,37.25
2019-01-23T08:54:04.540Z,37.25
2019-01-23T08:55:04.531Z,37.25
2019-01-23T08:56:04.580Z,37.15
2019-01-23T08:57:04.534Z,37.25
2019-01-23T08:58:04.559Z,37.25
2019-01-23T08:59:04.485Z,36.75
2019-01-23T09:00:04.476Z,37.05
2019-01-23T09:01:04.475Z,37.05
2019-01-23T09:02:04.464Z,37.25
2019-01-23T09:03:04.445Z,37.03
2019-01-23T09:04:04.453Z,37.05
2019-01-23T09:05:04.422Z,37.15
2019-01-23T09:06:04.450Z,37.05
2019-01-23T09:07:04.447Z,37.05
2019-01-23T09:08:04.385Z,37.15
2019-01-23T09:09:04.384Z,36.93
2019-01-23T09:10:04.364Z,36.93
2019-01-23T09:11:04.352Z,36.94
2019-01-23T09:12:04.339Z,37.05
2019-01-23T09:13:04.364Z,37.05
2019-01-23T09:14:04.374Z,36.93
2019-01-23T09:15:04.307Z,36.93
2019-01-23T09:16:04.297Z,36.85
2019-01-23T09:17:04.334Z,36.73
2019-01-23T09:18:04.290Z,36.94
2019-01-23T09:19:04.266Z,36.93
2019-01-23T09:20:04.269Z,36.93
2019-01-23T09:21:04.251Z,36.93
2019-01-23T09:22:04.230Z,36.93
2019-01-23T09:23:04.243Z,36.83
2019-01-23T09:24:04.229Z,36.83
2019-01-23T09:25:04.194Z,36.73
2019-01-23T09:26:04.204Z,36.73
2019-01-23T09:27:04.175Z,36.83
2019-01-23T09:28:04.172Z,36.93
2019-01-23T09:29:04.167Z,36.93
2019-01-23T09:30:04.168Z,36.93
2019-01-23T09:31:04.136Z,36.94
2019-01-23T09:32:04.150Z,36.93
2019-01-23T09:33:04.150Z,37.23
2019-01-23T09:34:04.098Z,37.05
2019-01-23T09:35:04.087Z,37.05
2019-01-23T09:36:04.076Z,36.94
2019-01-23T09:37:04.084Z,36.93
2019-01-23T09:38:04.083Z,37.03
2019-01-23T09:39:04.042Z,37.03
2019-01-23T09:40:04.030Z,37.23
2019-01-23T09:41:04.026Z,36.93
2019-01-23T09:42:04.006Z,36.93
2019-01-23T09:43:04.034Z,36.93
2019-01-23T09:44:03.984Z,36.83
2019-01-23T09:45:03.991Z,36.83
2019-01-23T09:46:03.960Z,36.93
2019-01-23T09:47:03.989Z,36.93
2019-01-23T09:48:03.966Z,37.03
2019-01-23T09:49:03.941Z,36.93
2019-01-23T09:50:03.920Z,36.93
2019-01-23T09:51:03.905Z,36.93
2019-01-23T09:52:03.890Z,36.93
2019-01-23T09:53:03.948Z,36.93
2019-01-23T09:54:03.875Z,36.93
2019-01-23T09:55:03.874Z,36.93
2019-01-23T09:56:03.861Z,36.73
2019-01-23T09:57:03.913Z,36.83
2019-01-23T09:58:03.844Z,36.93
2019-01-23T09:59:03.816Z,36.93
2019-01-23T10:00:03.808Z,36.73
2019-01-23T10:01:06.555Z,36.63
2019-01-23T10:02:03.788Z,36.93
2019-01-23T10:03:03.838Z,36.93
2019-01-23T10:04:03.756Z,36.83
2019-01-23T10:05:03.756Z,36.83
2019-01-23T10:06:03.744Z,36.83
2019-01-23T10:07:03.740Z,36.93
2019-01-23T10:08:03.717Z,36.73
2019-01-23T10:09:03.717Z,36.73
2019-01-23T10:10:03.692Z,36.83
2019-01-23T10:11:03.715Z,36.73
2019-01-23T10:12:03.699Z,36.93
2019-01-23T10:13:03.657Z,36.83
2019-01-23T10:14:03.658Z,36.83
2019-01-23T10:15:04.352Z,36.93
2019-01-23T10:16:03.645Z,36.93
2019-01-23T10:17:03.619Z,36.73
2019-01-23T10:18:03.609Z,36.93
2019-01-23T10:19:03.607Z,36.63
2019-01-23T10:20:03.583Z,36.93
2019-01-23T10:21:03.571Z,36.83
2019-01-23T10:22:03.568Z,36.93
2019-01-23T10:23:03.566Z,36.61
2019-01-23T10:24:03.607Z,36.93
2019-01-23T10:25:03.524Z,36.91
2019-01-23T10:26:03.525Z,37.03
2019-01-23T10:27:03.510Z,36.93
2019-01-23T10:28:03.489Z,36.71
2019-01-23T10:29:03.511Z,37.11
2019-01-23T10:30:03.474Z,37.21
2019-01-23T10:31:06.769Z,37.11
2019-01-23T10:32:03.466Z,37.13
2019-01-23T10:33:03.448Z,37.01
2019-01-23T10:34:03.429Z,37.01
2019-01-23T10:35:03.408Z,36.71
2019-01-23T10:36:03.423Z,36.91
2019-01-23T10:37:03.409Z,37.01
2019-01-23T10:38:03.424Z,36.93
2019-01-23T10:39:03.390Z,36.93
2019-01-23T10:40:03.352Z,36.93
2019-01-23T10:41:03.348Z,36.93
2019-01-23T10:42:03.338Z,36.83
2019-01-23T10:43:03.321Z,36.91
2019-01-23T10:44:03.345Z,37.43
2019-01-23T10:45:03.308Z,36.91
2019-01-23T10:46:03.328Z,37.11
2019-01-23T10:47:03.284Z,37.11
2019-01-23T10:48:03.269Z,37.11
2019-01-23T10:49:03.266Z,37.11
2019-01-23T10:50:03.245Z,36.91
2019-01-23T10:51:03.236Z,36.83
2019-01-23T10:52:03.240Z,36.81
2019-01-23T10:53:03.207Z,37.11
2019-01-23T10:54:03.211Z,37.03
2019-01-23T10:55:03.188Z,36.91
2019-01-23T10:56:03.172Z,37.11
2019-01-23T10:57:03.172Z,36.71
2019-01-23T10:58:03.155Z,36.93
2019-01-23T10:59:03.248Z,36.93
2019-01-23T11:00:03.147Z,37.01
2019-01-23T11:01:03.128Z,36.61
2019-01-23T11:02:03.118Z,36.63
2019-01-23T11:03:09.831Z,36.91
2019-01-23T11:04:04.104Z,36.73
2019-01-23T11:05:03.077Z,37.03
2019-01-23T11:06:03.063Z,36.83
2019-01-23T11:07:03.052Z,36.71
2019-01-23T11:08:03.034Z,36.71
2019-01-23T11:09:03.047Z,36.63
2019-01-23T11:10:03.018Z,36.91
2019-01-23T11:11:03.381Z,36.63
2019-01-23T11:12:02.997Z,36.83
2019-01-23T11:13:02.979Z,36.83
2019-01-23T11:14:02.988Z,36.81
2019-01-23T11:15:02.964Z,37.01
2019-01-23T11:16:02.950Z,37.01
2019-01-23T11:17:02.936Z,36.73
2019-01-23T11:18:02.922Z,36.61
2019-01-23T11:19:03.052Z,36.71
2019-01-23T11:20:02.906Z,36.71
2019-01-23T11:21:02.893Z,36.83
2019-01-23T11:22:03.003Z,37.13
2019-01-23T11:23:02.873Z,36.83
2019-01-23T11:24:02.862Z,37.13
2019-01-23T11:25:02.883Z,36.81
2019-01-23T11:26:02.850Z,36.71
2019-01-23T11:27:02.824Z,36.81
2019-01-23T11:28:02.812Z,36.61
2019-01-23T11:29:02.822Z,36.83
2019-01-23T11:30:02.807Z,37.01
2019-01-23T11:31:02.777Z,36.93
2019-01-23T11:32:02.771Z,36.61
2019-01-23T11:33:02.762Z,37.01
2019-01-23T11:34:02.745Z,36.91
2019-01-23T11:35:02.763Z,36.93
2019-01-23T11:36:02.741Z,36.73
2019-01-23T11:37:02.709Z,36.83
2019-01-23T11:38:02.706Z,37.11
2019-01-23T11:39:10.210Z,37.31
2019-01-23T11:40:12.427Z,37.23
2019-01-23T11:41:10.188Z,37.23
2019-01-23T11:42:02.654Z,37.31
2019-01-23T11:43:02.658Z,37.11
2019-01-23T11:44:02.637Z,36.93
2019-01-23T11:45:02.631Z,36.91
2019-01-23T11:46:02.632Z,36.71
2019-01-23T11:47:02.597Z,37.01
2019-01-23T11:48:02.588Z,36.81
2019-01-23T11:49:02.576Z,36.91
2019-01-23T11:50:02.576Z,36.93
2019-01-23T11:51:03.169Z,36.61
2019-01-23T11:52:02.571Z,36.73
2019-01-23T11:53:02.538Z,36.91
2019-01-23T11:54:02.532Z,37.13
2019-01-23T11:55:02.525Z,36.81
2019-01-23T11:56:02.497Z,36.91
2019-01-23T11:57:02.486Z,36.91
2019-01-23T11:58:02.489Z,36.73
2019-01-23T11:59:02.479Z,36.93
2019-01-23T12:00:02.468Z,36.91
2019-01-23T12:01:02.455Z,36.81
2019-01-23T12:02:02.437Z,36.83
2019-01-23T12:03:02.424Z,37.03
2019-01-23T12:04:02.413Z,36.61
2019-01-23T12:05:02.439Z,36.83
2019-01-23T12:06:02.385Z,36.81
2019-01-23T12:07:02.420Z,36.61
2019-01-23T12:08:02.374Z,36.83
2019-01-23T12:09:02.354Z,36.71
2019-01-23T12:10:02.347Z,36.83
2019-01-23T12:11:02.360Z,36.71
2019-01-23T12:12:02.332Z,36.81
2019-01-23T12:13:02.306Z,36.83
2019-01-23T12:14:02.295Z,36.71
2019-01-23T12:15:02.299Z,37.01
2019-01-23T12:16:02.284Z,36.91
2019-01-23T12:17:02.261Z,36.81
2019-01-23T12:18:02.256Z,37.03
2019-01-23T12:19:02.247Z,36.93
2019-01-23T12:20:02.230Z,37.01
2019-01-23T12:21:02.239Z,36.93
2019-01-23T12:22:02.206Z,36.91
2019-01-23T12:23:02.200Z,36.73
2019-01-23T12:24:02.194Z,36.83
2019-01-23T12:25:02.189Z,36.73
2019-01-23T12:26:02.177Z,36.73
2019-01-23T12:27:02.157Z,36.73
2019-01-23T12:28:02.143Z,36.93
2019-01-23T12:29:02.127Z,36.63
2019-01-23T12:30:02.118Z,36.91
2019-01-23T12:31:02.124Z,36.63
2019-01-23T12:32:02.161Z,36.63
2019-01-23T12:33:02.085Z,36.93
2019-01-23T12:34:02.077Z,36.71
2019-01-23T12:35:02.063Z,36.91
2019-01-23T12:36:02.091Z,36.83
2019-01-23T12:37:02.042Z,36.63
2019-01-23T12:38:02.025Z,36.61
2019-01-23T12:39:02.015Z,36.71
2019-01-23T12:40:02.013Z,37.01
2019-01-23T12:41:02.011Z,36.61
2019-01-23T12:42:02.002Z,36.63
2019-01-23T12:43:01.975Z,36.91
2019-01-23T12:44:01.963Z,36.93
2019-01-23T12:45:01.972Z,36.93
2019-01-23T12:46:01.948Z,36.81
2019-01-23T12:47:01.944Z,36.81
2019-01-23T12:48:01.913Z,36.93
2019-01-23T12:49:01.923Z,36.93
2019-01-23T12:50:01.889Z,36.81
2019-01-23T12:51:01.893Z,36.93
2019-01-23T12:52:01.880Z,36.93